Time;durP1;ratioP1;P1;durP2;ratioP2;P2;SDS_P1;SDS_P2;PMS_P1;PMS_P2;Temp;Humidity;BMP_temperature;BMP_pressure;BME280_temperature;BME280_humidity;BME280_pressure;Samples;Min_cycle;Max_cycle;Signal;HPM_P1;HPM_P2
2022/04/03 00:01:15;;;;;;;9.98;3.80;;;;;;;1.20;54.44;100396.56;5035835;28;20037;-59
2022/04/03 00:03:41;;;;;;;8.35;3.70;;;;;;;1.19;54.34;100391.34;5035708;28;20025;-59
2022/04/03 00:06:06;;;;;;;10.80;3.55;;;;;;;1.24;54.53;100384.56;5035581;28;20041;-58
2022/04/03 00:08:32;;;;;;;8.50;3.58;;;;;;;1.31;54.30;100388.97;5035540;28;20037;-58
2022/04/03 00:10:57;;;;;;;7.85;3.40;;;;;;;1.42;53.88;100394.31;5035233;28;20037;-58
2022/04/03 00:13:23;;;;;;;7.40;2.97;;;;;;;1.39;54.08;100383.91;5035515;28;20033;-59
2022/04/03 00:15:49;;;;;;;7.20;2.97;;;;;;;1.45;53.92;100381.44;5035581;28;20036;-58
2022/04/03 00:18:14;;;;;;;5.32;2.38;;;;;;;1.50;53.92;100382.34;5035637;28;20112;-59
2022/04/03 00:20:41;;;;;;;6.72;3.08;;;;;;;1.40;54.10;100390.84;5035326;28;20388;-58
2022/04/03 00:23:07;;;;;;;7.90;2.90;;;;;;;1.35;53.93;100382.13;5035249;28;20037;-58
2022/04/03 00:25:32;;;;;;;6.95;2.90;;;;;;;1.25;54.32;100380.25;5035489;28;20033;-58
2022/04/03 00:27:58;;;;;;;5.78;2.50;;;;;;;1.08;54.69;100383.44;5034984;28;20108;-58
2022/04/03 00:30:24;;;;;;;5.55;2.47;;;;;;;0.95;54.75;100382.31;5035351;28;20041;-58
2022/04/03 00:32:49;;;;;;;5.38;2.35;;;;;;;0.85;55.29;100382.16;5035102;28;20112;-58
2022/04/03 00:35:16;;;;;;;4.50;2.30;;;;;;;0.73;55.63;100375.91;5035074;28;20033;-58
2022/04/03 00:37:42;;;;;;;4.43;2.50;;;;;;;0.68;55.45;100381.88;5034479;28;20045;-58
2022/04/03 00:40:08;;;;;;;5.85;2.45;;;;;;;0.70;55.64;100382.75;5035205;28;20423;-58
2022/04/03 00:42:36;;;;;;;5.13;2.55;;;;;;;0.65;55.50;100381.81;5034689;28;20033;-58
2022/04/03 00:45:03;;;;;;;6.30;3.08;;;;;;;0.60;55.49;100386.91;5034776;28;20053;-58
2022/04/03 00:47:29;;;;;;;4.43;2.67;;;;;;;0.60;55.41;100381.72;5034783;28;20033;-58
2022/04/03 00:49:55;;;;;;;4.97;2.10;;;;;;;0.52;55.74;100385.88;5034759;28;20064;-58
2022/04/03 00:52:20;;;;;;;6.10;2.63;;;;;;;0.49;55.85;100381.50;5034560;28;20053;-58
2022/04/03 00:54:47;;;;;;;5.15;2.30;;;;;;;0.53;55.35;100387.63;5034915;28;20041;-59
2022/04/03 00:57:13;;;;;;;6.03;2.80;;;;;;;0.52;55.24;100377.22;5034518;28;20421;-59
2022/04/03 00:59:44;;;;;;;5.57;2.80;;;;;;;0.51;55.21;100378.94;5034621;28;20525;-58
2022/04/03 01:02:09;;;;;;;4.55;2.20;;;;;;;0.57;54.76;100376.47;5034541;28;20120;-58
2022/04/03 01:04:39;;;;;;;6.32;2.83;;;;;;;0.59;54.56;100382.53;5034435;28;20116;-59
2022/04/03 01:07:05;;;;;;;4.32;2.10;;;;;;;0.74;54.28;100374.19;5034440;28;20080;-59
2022/04/03 01:09:31;;;;;;;5.55;2.28;;;;;;;0.89;53.94;100374.47;5034416;28;20038;-59
2022/04/03 01:11:56;;;;;;;8.00;2.75;;;;;;;0.92;53.68;100382.31;5034386;28;20530;-59
2022/04/03 01:14:40;;;;;;;9.88;3.03;;;;;;;0.96;53.40;100372.88;5034503;28;20442;-59
2022/04/03 01:17:07;;;;;;;7.68;3.10;;;;;;;1.03;53.07;100373.81;5034370;28;20033;-59
2022/04/03 01:19:33;;;;;;;10.10;3.65;;;;;;;1.07;52.92;100373.91;5034108;28;20129;-59
2022/04/03 01:21:59;;;;;;;13.38;3.75;;;;;;;1.13;52.58;100379.19;5034121;28;20342;-58
2022/04/03 01:24:25;;;;;;;10.35;3.20;;;;;;;1.10;52.42;100376.56;5034324;28;20519;-59
2022/04/03 01:26:52;;;;;;;4.22;2.13;;;;;;;1.07;52.63;100381.66;5034340;28;20087;-59
2022/04/03 01:29:18;;;;;;;5.15;2.00;;;;;;;1.03;52.69;100381.59;5034063;28;20103;-59
2022/04/03 01:31:45;;;;;;;4.13;1.92;;;;;;;0.93;53.00;100370.22;5034054;28;20469;-58
2022/04/03 01:34:11;;;;;;;5.57;1.77;;;;;;;0.80;53.12;100379.50;5033593;28;20488;-59
2022/04/03 01:36:36;;;;;;;5.43;2.20;;;;;;;0.76;53.28;100376.81;5034203;28;20030;-59
2022/04/03 01:39:03;;;;;;;3.30;2.17;;;;;;;0.81;53.44;100375.19;5033500;28;20045;-59
2022/04/03 01:41:28;;;;;;;5.38;2.20;;;;;;;0.92;53.27;100378.84;5033833;28;20029;-58
2022/04/03 01:43:53;;;;;;;4.32;2.33;;;;;;;1.02;52.91;100375.56;5034030;28;20033;-58
2022/04/03 01:46:19;;;;;;;4.47;2.53;;;;;;;1.14;52.85;100390.41;5033575;28;20468;-58
2022/04/03 01:48:44;;;;;;;3.95;2.17;;;;;;;1.25;52.46;100386.28;5032656;28;20113;-58
2022/04/03 01:51:10;;;;;;;4.90;2.47;;;;;;;1.31;52.47;100382.91;5033830;28;20033;-58
2022/04/03 01:53:35;;;;;;;4.32;2.58;;;;;;;1.43;52.16;100386.56;5033577;28;20125;-58
2022/04/03 01:56:03;;;;;;;7.80;3.75;;;;;;;1.53;51.96;100384.13;5033883;28;20072;-59
2022/04/03 01:58:30;;;;;;;7.13;3.42;;;;;;;1.55;51.82;100378.09;5033834;28;20025;-59
2022/04/03 02:00:56;;;;;;;5.45;3.10;;;;;;;1.54;51.85;100378.97;5034088;28;20038;-59
2022/04/03 02:03:22;;;;;;;7.22;3.60;;;;;;;1.43;52.27;100375.34;5033189;28;20064;-58
2022/04/03 02:05:47;;;;;;;7.82;3.58;;;;;;;1.35;52.35;100371.75;5033508;28;20045;-58
2022/04/03 02:08:13;;;;;;;7.03;3.25;;;;;;;1.30;52.11;100373.41;5033576;28;20117;-59
2022/04/03 02:10:38;;;;;;;5.95;3.00;;;;;;;1.26;52.52;100377.66;5033894;28;20041;-59
2022/04/03 02:13:05;;;;;;;7.57;3.00;;;;;;;1.32;52.27;100374.31;5033643;28;20045;-59
2022/04/03 02:15:30;;;;;;;6.63;2.83;;;;;;;1.37;52.02;100375.25;5033360;28;20040;-59
2022/04/03 02:17:56;;;;;;;5.25;2.45;;;;;;;1.41;52.00;100382.22;5033282;28;20026;-59
2022/04/03 02:20:21;;;;;;;3.88;2.42;;;;;;;1.43;52.20;100383.09;5033818;28;20090;-58
2022/04/03 02:22:47;;;;;;;3.42;2.20;;;;;;;1.41;52.09;100377.03;5033299;28;20030;-59
2022/04/03 02:25:13;;;;;;;5.82;2.72;;;;;;;1.50;51.89;100379.75;5033373;28;20029;-59
2022/04/03 02:27:40;;;;;;;3.92;2.30;;;;;;;1.53;51.58;100385.00;5033474;28;20087;-58
2022/04/03 02:30:11;;;;;;;4.55;2.70;;;;;;;1.58;51.89;100378.16;5033378;28;20033;-58
2022/04/03 02:32:37;;;;;;;4.93;2.53;;;;;;;1.57;51.85;100375.56;5032523;28;20179;-59
2022/04/03 02:35:06;;;;;;;4.63;2.45;;;;;;;1.59;51.57;100376.44;5033612;28;20492;-59
2022/04/03 02:37:33;;;;;;;3.90;2.30;;;;;;;1.53;51.42;100382.41;5033008;28;20033;-59
2022/04/03 02:39:58;;;;;;;4.13;2.55;;;;;;;1.48;51.83;100378.88;5033270;28;20044;-59
2022/04/03 02:42:24;;;;;;;6.25;2.25;;;;;;;1.53;51.76;100382.41;5033092;28;20029;-58
2022/04/03 02:44:49;;;;;;;4.68;2.80;;;;;;;1.54;51.72;100384.16;5033155;28;20025;-59
2022/04/03 02:47:15;;;;;;;4.47;2.60;;;;;;;1.58;51.44;100385.94;5033268;28;20030;-58
2022/04/03 02:49:40;;;;;;;4.60;2.63;;;;;;;1.58;51.58;100380.75;5033135;28;20037;-59
2022/04/03 02:52:05;;;;;;;3.33;1.73;;;;;;;1.68;51.29;100380.06;5032245;28;20037;-59
2022/04/03 02:54:31;;;;;;;4.80;2.38;;;;;;;1.70;50.87;100372.28;5032761;28;20131;-59
2022/04/03 02:56:57;;;;;;;5.75;2.65;;;;;;;1.70;51.17;100378.34;5033030;28;20041;-58
2022/04/03 02:59:22;;;;;;;4.38;2.22;;;;;;;1.69;50.83;100375.72;5033106;28;20116;-59
2022/04/03 03:01:48;;;;;;;7.35;2.20;;;;;;;1.55;51.08;100367.75;5033320;28;20029;-59
2022/04/03 03:04:14;;;;;;;4.20;2.28;;;;;;;1.35;51.66;100379.53;5033141;28;20034;-59
2022/04/03 03:06:40;;;;;;;4.22;2.20;;;;;;;1.21;51.75;100371.56;5033071;28;20052;-59
2022/04/03 03:09:06;;;;;;;4.57;2.40;;;;;;;1.12;51.82;100374.88;5033371;28;20424;-59
2022/04/03 03:11:31;;;;;;;5.38;2.80;;;;;;;1.16;51.80;100383.56;5032955;28;20046;-59
2022/04/03 03:13:56;;;;;;;5.43;2.95;;;;;;;0.99;52.15;100371.19;5031714;28;20469;-59
2022/04/03 03:16:22;;;;;;;6.85;2.70;;;;;;;0.98;52.23;100374.63;5034708;28;20037;-58
2022/04/03 03:18:47;;;;;;;4.97;2.72;;;;;;;0.99;52.45;100375.50;5036528;28;20042;-59
2022/04/03 03:21:12;;;;;;;7.82;2.88;;;;;;;0.89;52.45;100376.19;5036273;28;20041;-59
2022/04/03 03:23:40;;;;;;;5.95;3.17;;;;;;;0.89;52.15;100381.38;5036457;28;20068;-59
2022/04/03 03:26:06;;;;;;;8.20;3.70;;;;;;;0.85;52.49;100374.41;5036301;28;20034;-59
2022/04/03 03:28:31;;;;;;;15.52;7.43;;;;;;;0.81;52.50;100375.19;5035092;28;20423;-59
2022/04/03 03:30:57;;;;;;;18.92;8.25;;;;;;;0.84;52.63;100377.81;5036472;28;20044;-59
2022/04/03 03:33:22;;;;;;;19.15;8.93;;;;;;;0.91;52.17;100370.19;5036218;28;20116;-59
2022/04/03 03:35:48;;;;;;;17.00;8.70;;;;;;;0.95;52.44;100371.97;5021062;28;20034;-59
2022/04/03 03:38:14;;;;;;;11.13;6.30;;;;;;;1.06;51.96;100379.94;5016210;28;20488;-59
2022/04/03 03:40:40;;;;;;;10.52;5.72;;;;;;;1.06;52.20;100374.75;5033845;28;20034;-59
2022/04/03 03:43:07;;;;;;;6.15;3.78;;;;;;;1.04;52.18;100384.22;5033736;28;20044;-59
2022/04/03 03:45:33;;;;;;;5.55;3.30;;;;;;;0.83;52.66;100378.66;5034357;28;20029;-59
2022/04/03 03:47:58;;;;;;;8.43;2.85;;;;;;;0.74;53.03;100369.91;5034333;28;20492;-59
2022/04/03 03:50:24;;;;;;;5.22;2.72;;;;;;;0.72;52.77;100374.19;5028681;28;20033;-58
2022/04/03 03:52:50;;;;;;;6.00;2.97;;;;;;;0.74;52.81;100377.66;5016129;28;20038;-59
2022/04/03 03:55:16;;;;;;;7.63;3.08;;;;;;;0.83;53.04;100373.47;5016970;28;20034;-58
2022/04/03 03:57:46;;;;;;;4.25;2.60;;;;;;;0.73;53.34;100373.34;5016932;28;20076;-59
2022/04/03 04:00:12;;;;;;;4.68;2.53;;;;;;;0.85;53.02;100380.44;5016107;28;20038;-59
2022/04/03 04:02:43;;;;;;;5.15;2.53;;;;;;;0.94;52.70;100375.41;5017631;28;20033;-59
2022/04/03 04:05:09;;;;;;;3.97;2.35;;;;;;;1.00;52.71;100379.84;5015878;28;20056;-59
2022/04/03 04:07:39;;;;;;;5.75;2.83;;;;;;;0.90;53.19;100388.28;5032343;28;20049;-59
2022/04/03 04:10:05;;;;;;;5.60;2.80;;;;;;;0.96;52.77;100393.56;5035577;28;20045;-59
2022/04/03 04:12:31;;;;;;;4.80;2.50;;;;;;;0.90;52.90;100385.69;5019275;28;20494;-59
2022/04/03 04:14:57;;;;;;;4.70;2.60;;;;;;;0.87;52.98;100383.91;5020229;28;20469;-59
2022/04/03 04:17:23;;;;;;;6.13;2.60;;;;;;;0.81;53.37;100393.31;5033492;28;20044;-59
2022/04/03 04:19:49;;;;;;;5.28;2.80;;;;;;;0.79;53.44;100392.38;5035367;28;20034;-59
2022/04/03 04:22:16;;;;;;;6.00;3.03;;;;;;;0.79;53.62;100389.78;5033828;28;20116;-59
2022/04/03 04:24:42;;;;;;;5.60;2.83;;;;;;;0.68;53.90;100390.50;5015481;28;20033;-59
2022/04/03 04:27:07;;;;;;;4.75;2.58;;;;;;;0.72;53.76;100389.69;5014637;28;20041;-59
2022/04/03 04:29:33;;;;;;;5.07;2.80;;;;;;;0.75;53.65;100388.88;5016487;28;20409;-59
2022/04/03 04:31:58;;;;;;;3.58;2.30;;;;;;;0.85;53.80;100389.91;5014850;28;20042;-59
2022/04/03 04:34:24;;;;;;;7.53;2.97;;;;;;;0.92;53.31;100391.78;5013946;28;20057;-59
2022/04/03 04:36:49;;;;;;;7.70;3.50;;;;;;;1.08;53.10;100387.72;5013618;28;20386;-59
2022/04/03 04:39:14;;;;;;;4.93;2.67;;;;;;;1.14;53.18;100391.28;5014658;28;20065;-59
2022/04/03 04:41:40;;;;;;;6.85;3.30;;;;;;;1.10;53.79;100391.22;5013681;28;20038;-59
2022/04/03 04:44:06;;;;;;;7.22;2.90;;;;;;;1.17;53.79;100390.47;5021328;28;20045;-59
2022/04/03 04:46:32;;;;;;;6.03;3.00;;;;;;;1.27;53.61;100399.25;5015222;28;20114;-59
2022/04/03 04:48:58;;;;;;;8.32;3.75;;;;;;;1.25;53.81;100401.81;5027562;28;20029;-59
2022/04/03 04:51:23;;;;;;;7.95;3.33;;;;;;;1.27;54.05;100391.47;5034774;28;20043;-59
2022/04/03 04:53:49;;;;;;;6.25;3.00;;;;;;;1.19;54.27;100396.53;5020839;28;20041;-58
2022/04/03 04:56:14;;;;;;;6.72;2.83;;;;;;;0.99;55.37;100396.19;5014243;28;20116;-59
2022/04/03 04:58:40;;;;;;;7.30;3.53;;;;;;;0.85;55.93;100389.91;5013368;28;20060;-59
2022/04/03 05:01:06;;;;;;;5.78;2.75;;;;;;;0.84;56.06;100391.66;5014149;28;20034;-59
2022/04/03 05:03:31;;;;;;;7.00;3.13;;;;;;;0.85;56.44;100395.97;5013255;28;20030;-58
2022/04/03 05:05:57;;;;;;;5.97;3.20;;;;;;;0.92;56.50;100399.53;5026601;28;20040;-59
2022/04/03 05:08:23;;;;;;;8.27;3.05;;;;;;;0.90;56.95;100393.44;5033850;28;20034;-59
2022/04/03 05:10:50;;;;;;;7.68;3.35;;;;;;;0.94;56.95;100405.59;5021895;28;20041;-59
2022/04/03 05:13:15;;;;;;;7.13;3.30;;;;;;;1.06;56.23;100412.69;5014695;28;20056;-58
2022/04/03 05:15:41;;;;;;;6.80;3.80;;;;;;;1.06;56.46;100410.13;5024729;28;20044;-59
2022/04/03 05:18:06;;;;;;;7.32;3.88;;;;;;;1.07;56.93;100407.53;5026801;28;20042;-59
2022/04/03 05:20:33;;;;;;;10.38;3.83;;;;;;;1.14;56.85;100416.28;5014437;28;20034;-59
2022/04/03 05:22:58;;;;;;;8.68;4.47;;;;;;;1.31;56.46;100412.25;5019660;28;20033;-59
2022/04/03 05:25:24;;;;;;;7.13;3.70;;;;;;;1.49;56.22;100406.53;5032193;28;20045;-58
2022/04/03 05:27:50;;;;;;;6.88;3.35;;;;;;;1.79;55.63;100411.25;5033585;28;20029;-58
2022/04/03 05:30:15;;;;;;;6.70;3.78;;;;;;;2.08;54.63;100403.91;5023738;28;20089;-59
2022/04/03 05:32:41;;;;;;;9.52;3.75;;;;;;;2.31;54.18;100422.34;5015195;28;20038;-59
2022/04/03 05:35:09;;;;;;;7.47;3.95;;;;;;;2.40;53.92;100419.00;5014267;28;20504;-59
2022/04/03 05:37:36;;;;;;;10.05;4.25;;;;;;;2.35;54.20;100425.84;5014012;28;20064;-59
2022/04/03 05:40:04;;;;;;;11.48;4.80;;;;;;;2.30;53.97;100424.91;5013796;28;20053;-59
2022/04/03 05:42:30;;;;;;;8.30;4.03;;;;;;;2.18;54.06;100429.09;5014629;28;20029;-59
2022/04/03 05:44:56;;;;;;;9.02;4.15;;;;;;;2.02;54.36;100424.56;5014538;28;20046;-59
2022/04/03 05:47:23;;;;;;;10.52;4.75;;;;;;;2.06;54.61;100428.06;5026380;28;20026;-59
2022/04/03 05:49:48;;;;;;;7.55;3.92;;;;;;;2.03;54.72;100436.66;5014449;28;20038;-58
2022/04/03 05:52:14;;;;;;;9.60;4.28;;;;;;;2.00;54.75;100444.41;5022862;28;20071;-58
2022/04/03 05:54:39;;;;;;;8.32;3.92;;;;;;;2.01;54.74;100430.59;5033475;28;20033;-59
2022/04/03 05:57:05;;;;;;;6.95;3.65;;;;;;;2.16;54.33;100438.59;5022378;28;20049;-58
2022/04/03 05:59:32;;;;;;;8.32;4.10;;;;;;;2.25;54.15;100448.19;5013961;28;20125;-58
2022/04/03 06:01:57;;;;;;;10.27;5.00;;;;;;;2.36;53.86;100431.06;5021171;28;20069;-59
2022/04/03 06:04:23;;;;;;;11.57;5.68;;;;;;;2.71;53.16;100436.66;5029071;28;20080;-59
2022/04/03 06:06:48;;;;;;;11.48;6.07;;;;;;;3.03;52.26;100438.69;5044592;28;20037;-60
2022/04/03 06:09:14;;;;;;;13.02;5.55;;;;;;;3.26;51.74;100427.69;5030880;28;20096;-59
2022/04/03 06:11:39;;;;;;;9.25;4.75;;;;;;;3.32;51.61;100435.53;5031642;28;20033;-59
2022/04/03 06:14:05;;;;;;;9.70;4.43;;;;;;;3.53;50.99;100427.91;5034447;28;20037;-59
2022/04/03 06:16:31;;;;;;;10.57;3.97;;;;;;;3.76;50.71;100438.47;5033533;28;20496;-58
2022/04/03 06:18:56;;;;;;;9.65;4.22;;;;;;;3.85;50.30;100442.84;5028768;28;20037;-59
2022/04/03 06:21:22;;;;;;;6.15;2.65;;;;;;;3.83;50.05;100434.16;5033213;28;20091;-58
2022/04/03 06:23:47;;;;;;;6.93;2.45;;;;;;;3.80;50.08;100436.78;5027844;28;20378;-58
2022/04/03 06:26:13;;;;;;;5.55;2.80;;;;;;;3.89;49.83;100434.22;5012651;28;20470;-59
2022/04/03 06:28:38;;;;;;;8.13;4.03;;;;;;;4.05;49.50;100438.66;5013702;28;20041;-59
2022/04/03 06:31:04;;;;;;;9.82;3.97;;;;;;;4.08;49.46;100435.22;5016634;28;20025;-58
2022/04/03 06:33:34;;;;;;;7.65;3.88;;;;;;;4.17;49.59;100430.91;5022282;28;20037;-58
2022/04/03 06:36:03;;;;;;;13.57;5.18;;;;;;;4.31;49.36;100435.31;5026152;28;20030;-58
2022/04/03 06:38:29;;;;;;;11.30;4.63;;;;;;;4.28;49.55;100435.31;5043129;28;20045;-59
2022/04/03 06:40:57;;;;;;;10.63;5.13;;;;;;;4.09;49.50;100439.53;5039346;28;20487;-59
2022/04/03 06:43:25;;;;;;;8.55;4.10;;;;;;;4.09;49.55;100430.00;5037688;28;20084;-59
2022/04/03 06:45:52;;;;;;;8.00;4.32;;;;;;;4.13;49.62;100442.16;5034344;28;20034;-59
2022/04/03 06:48:18;;;;;;;8.88;4.22;;;;;;;4.26;49.49;100443.09;5052666;28;20037;-59
2022/04/03 06:50:44;;;;;;;7.35;4.07;;;;;;;4.16;49.40;100436.97;5054770;28;20119;-60
2022/04/03 06:53:10;;;;;;;8.60;4.93;;;;;;;4.20;49.49;100443.94;5026602;28;20120;-60
2022/04/03 06:55:36;;;;;;;7.88;4.20;;;;;;;4.26;49.28;100432.69;5019916;28;20072;-59
2022/04/03 06:58:01;;;;;;;8.23;4.93;;;;;;;4.39;48.86;100441.44;5035921;28;20040;-59
2022/04/03 07:00:27;;;;;;;8.48;4.47;;;;;;;4.44;48.76;100444.91;5036396;28;20396;-59
2022/04/03 07:02:53;;;;;;;12.57;6.53;;;;;;;4.58;48.64;100440.63;5024636;28;20141;-59
2022/04/03 07:05:19;;;;;;;10.50;6.55;;;;;;;4.69;48.38;100444.13;5020936;28;20125;-59
2022/04/03 07:07:45;;;;;;;11.90;5.35;;;;;;;4.60;48.24;100443.25;5017038;28;20113;-59
2022/04/03 07:10:11;;;;;;;8.38;4.85;;;;;;;4.72;47.97;100443.28;5035891;28;20030;-59
2022/04/03 07:12:37;;;;;;;12.00;5.25;;;;;;;4.81;47.84;100450.25;5035225;28;20052;-60
2022/04/03 07:15:05;;;;;;;8.95;5.15;;;;;;;4.97;47.52;100439.00;5022124;28;20041;-60
2022/04/03 07:17:30;;;;;;;10.65;4.65;;;;;;;4.98;47.36;100440.75;5024727;28;20045;-59
2022/04/03 07:19:56;;;;;;;9.05;4.50;;;;;;;4.98;47.18;100440.75;5019698;28;20049;-60
2022/04/03 07:22:22;;;;;;;6.90;3.70;;;;;;;5.09;46.97;100443.38;5015754;28;20061;-60
2022/04/03 07:24:47;;;;;;;4.50;2.03;;;;;;;5.04;46.59;100442.50;5014626;28;20030;-60
2022/04/03 07:27:12;;;;;;;5.70;2.30;;;;;;;5.20;46.39;100452.06;5015804;28;20405;-61
2022/04/03 07:29:38;;;;;;;4.63;2.25;;;;;;;5.40;46.16;100454.72;5015945;28;20123;-60
2022/04/03 07:32:04;;;;;;;5.15;1.77;;;;;;;5.49;46.06;100443.41;5015845;28;20038;-60
2022/04/03 07:34:29;;;;;;;3.70;2.00;;;;;;;5.66;45.54;100447.75;5015656;28;20037;-60
2022/04/03 07:36:56;;;;;;;4.72;2.15;;;;;;;5.81;45.20;100448.59;5016042;28;20049;-60
2022/04/03 07:39:22;;;;;;;2.88;1.70;;;;;;;5.93;44.94;100451.22;5016319;28;20524;-59
2022/04/03 07:41:48;;;;;;;3.83;1.52;;;;;;;6.07;44.76;100446.00;5020110;28;20038;-60
2022/04/03 07:44:14;;;;;;;3.17;1.40;;;;;;;6.08;44.60;100458.16;5029002;28;20408;-60
2022/04/03 07:46:39;;;;;;;3.97;1.77;;;;;;;6.02;44.73;100456.41;5034565;28;20044;-57
2022/04/03 07:49:05;;;;;;;9.45;2.95;;;;;;;6.07;44.60;100451.22;5015830;28;20484;-59
2022/04/03 07:51:31;;;;;;;6.57;2.92;;;;;;;6.23;44.07;100465.09;5015988;28;20030;-59
2022/04/03 07:53:57;;;;;;;4.22;2.20;;;;;;;6.22;43.43;100452.91;5016069;28;20034;-59
2022/04/03 07:56:22;;;;;;;7.50;3.00;;;;;;;6.26;43.50;100459.84;5015882;28;20497;-59
2022/04/03 07:58:48;;;;;;;4.43;2.70;;;;;;;6.29;43.36;100446.78;5016966;28;20088;-59
2022/04/03 08:01:13;;;;;;;6.28;2.75;;;;;;;6.36;43.32;100445.91;5036292;28;20029;-60
2022/04/03 08:03:39;;;;;;;6.68;3.20;;;;;;;6.31;43.44;100452.91;5045739;28;20057;-59
2022/04/03 08:06:05;;;;;;;8.27;2.35;;;;;;;6.37;42.69;100447.63;5035469;28;20053;-60
2022/04/03 08:08:31;;;;;;;2.60;1.35;;;;;;;6.11;42.54;100448.59;5051315;28;20029;-59
2022/04/03 08:10:56;;;;;;;3.08;1.50;;;;;;;6.09;43.01;100450.31;5039538;28;20104;-59
2022/04/03 08:13:22;;;;;;;4.50;1.80;;;;;;;5.57;41.68;100445.13;5031809;28;20469;-59
2022/04/03 08:15:48;;;;;;;3.33;1.48;;;;;;;5.18;42.19;100448.59;5037959;28;20117;-60
2022/04/03 08:18:13;;;;;;;3.78;1.40;;;;;;;5.07;42.54;100446.00;5039062;28;20110;-59
2022/04/03 08:20:39;;;;;;;3.65;1.83;;;;;;;5.23;42.87;100456.44;5030784;28;20064;-60
2022/04/03 08:23:05;;;;;;;6.60;2.05;;;;;;;5.24;43.50;100442.53;5035301;28;20473;-54
2022/04/03 08:25:34;;;;;;;3.90;1.73;;;;;;;5.54;42.64;100441.66;5028594;28;20126;-59
2022/04/03 08:28:03;;;;;;;3.20;1.65;;;;;;;5.75;42.37;100438.19;5035081;28;20041;-66
2022/04/03 08:30:34;;;;;;;4.03;1.27;;;;;;;5.86;41.40;100445.09;5033630;28;20029;-60
2022/04/03 08:33:00;;;;;;;2.33;1.10;;;;;;;5.91;41.33;100442.53;5035405;28;20060;-61
2022/04/03 08:35:28;;;;;;;2.65;1.30;;;;;;;6.20;41.32;100446.84;5038691;28;20033;-62
2022/04/03 08:37:55;;;;;;;2.80;1.48;;;;;;;6.12;41.01;100446.84;5028246;28;20042;-60
2022/04/03 08:40:22;;;;;;;3.53;1.42;;;;;;;6.36;40.70;100440.69;5015128;28;20069;-61
2022/04/03 08:42:50;;;;;;;3.05;1.08;;;;;;;6.29;40.58;100433.75;5014743;28;20033;-61
2022/04/03 08:45:15;;;;;;;5.60;1.35;;;;;;;6.02;40.85;100445.97;5014768;28;20065;-61
2022/04/03 08:47:41;;;;;;;2.88;1.25;;;;;;;6.42;40.13;100440.66;5014073;28;20038;-60
2022/04/03 08:50:06;;;;;;;4.20;1.60;;;;;;;6.68;38.34;100447.53;5014780;28;20034;-60
2022/04/03 08:52:32;;;;;;;2.08;1.00;;;;;;;7.05;38.35;100433.38;5016722;28;20042;-61
2022/04/03 08:54:59;;;;;;;2.25;1.20;;;;;;;7.37;36.75;100438.38;5034445;28;20030;-60
2022/04/03 08:57:24;;;;;;;3.55;1.50;;;;;;;7.73;36.74;100432.84;5026141;28;20022;-60
2022/04/03 08:59:51;;;;;;;2.20;1.30;;;;;;;8.15;36.21;100427.19;5014771;28;20462;-61
2022/04/03 09:02:16;;;;;;;2.10;1.23;;;;;;;7.99;36.49;100428.25;5014758;28;20053;-60
2022/04/03 09:04:42;;;;;;;2.55;1.20;;;;;;;7.88;35.79;100437.94;5045924;28;20484;-61
2022/04/03 09:07:17;;;;;;;2.17;1.30;;;;;;;7.53;34.25;100436.50;5038935;28;20033;-61
2022/04/03 09:09:42;;;;;;;5.53;1.70;;;;;;;7.43;35.33;100431.38;5025649;28;20045;-60
2022/04/03 09:12:12;;;;;;;4.85;2.60;;;;;;;7.47;35.79;100427.84;5022941;28;20495;-60
2022/04/03 09:14:47;;;;;;;3.60;2.10;;;;;;;7.03;34.77;100444.72;5034293;28;20385;-60
2022/04/03 09:17:31;;;;;;;3.78;1.60;;;;;;;7.11;35.47;100433.34;5037548;28;20032;-60
2022/04/03 09:19:58;;;;;;;3.38;1.65;;;;;;;7.32;35.43;100421.84;5036917;28;20041;-61
2022/04/03 09:22:30;;;;;;;3.10;1.23;;;;;;;7.73;34.71;100427.63;5033901;28;20370;-60
2022/04/03 09:24:55;;;;;;;4.63;1.90;;;;;;;8.06;34.08;100429.91;5033214;28;20160;-60
2022/04/03 09:27:23;;;;;;;4.40;1.52;;;;;;;8.24;33.53;100413.13;5030511;28;20484;-61
2022/04/03 09:30:01;;;;;;;3.05;1.30;;;;;;;8.22;32.65;100416.63;5049158;28;20040;-60
2022/04/03 09:32:27;;;;;;;3.72;1.10;;;;;;;8.25;33.65;100425.31;5032767;28;20103;-60
2022/04/03 09:34:57;;;;;;;2.60;1.20;;;;;;;8.12;33.44;100411.50;5034847;28;20436;-60
2022/04/03 09:37:23;;;;;;;2.83;0.98;;;;;;;8.31;33.87;100412.19;5044589;28;20029;-60
2022/04/03 09:39:49;;;;;;;2.67;1.60;;;;;;;7.99;33.73;100425.63;5032721;28;20393;-60
2022/04/03 09:42:15;;;;;;;4.35;1.52;;;;;;;7.92;34.51;100403.00;5024354;28;20473;-60
2022/04/03 09:44:46;;;;;;;18.02;8.02;;;;;;;7.94;34.07;100409.13;5033219;28;20092;-60
2022/04/03 09:47:18;;;;;;;46.70;19.80;;;;;;;8.36;33.89;100399.88;5033619;28;20052;-60
2022/04/03 09:49:57;;;;;;;16.77;6.40;;;;;;;8.77;33.14;100402.88;5033689;28;20069;-60
2022/04/03 09:52:40;;;;;;;4.82;2.65;;;;;;;8.80;32.15;100397.59;5032793;28;20080;-61
2022/04/03 09:55:23;;;;;;;6.57;3.65;;;;;;;9.06;32.00;100403.34;5025160;28;20060;-60
2022/04/03 09:58:05;;;;;;;6.20;2.60;;;;;;;8.89;31.00;100407.94;5012360;28;20462;-60
2022/04/03 10:00:32;;;;;;;3.97;2.05;;;;;;;8.73;32.64;100390.72;5012344;28;20113;-60
2022/04/03 10:03:00;;;;;;;3.83;1.80;;;;;;;8.52;32.39;100400.59;5020349;28;20473;-60
2022/04/03 10:05:30;;;;;;;3.65;1.60;;;;;;;8.47;32.60;100385.84;5030766;28;20473;-60
2022/04/03 10:08:00;;;;;;;2.53;1.40;;;;;;;8.17;33.13;100387.91;5044631;28;20038;-60
2022/04/03 10:10:30;;;;;;;4.55;1.20;;;;;;;7.78;34.05;100379.63;5033309;28;20026;-60
2022/04/03 10:12:56;;;;;;;3.40;1.00;;;;;;;7.87;34.37;100374.28;5033264;28;20030;-60
2022/04/03 10:15:22;;;;;;;4.60;2.30;;;;;;;8.44;33.92;100376.25;5033702;28;20033;-60
2022/04/03 10:17:47;;;;;;;3.60;1.92;;;;;;;8.77;32.94;100369.69;5033354;28;20056;-60
2022/04/03 10:20:14;;;;;;;3.33;1.70;;;;;;;9.20;32.38;100358.56;5028353;28;20474;-60
2022/04/03 10:22:43;;;;;;;4.20;1.52;;;;;;;8.86;31.41;100371.34;5013475;28;20069;-61
2022/04/03 10:25:14;;;;;;;5.25;1.60;;;;;;;8.86;31.53;100360.84;5017942;28;20042;-61
2022/04/03 10:27:42;;;;;;;3.63;1.58;;;;;;;8.99;32.22;100365.00;5017382;28;20034;-60
2022/04/03 10:30:10;;;;;;;3.38;1.75;;;;;;;8.95;31.65;100358.09;5032453;28;20033;-60
2022/04/03 10:32:36;;;;;;;5.07;2.92;;;;;;;9.06;32.00;100352.69;5043828;28;20052;-60
2022/04/03 10:35:05;;;;;;;2.08;1.13;;;;;;;8.93;31.36;100353.75;5037676;28;20046;-60
2022/04/03 10:37:42;;;;;;;4.47;1.55;;;;;;;9.00;31.44;100345.78;5033122;28;20496;-57
2022/04/03 10:40:16;;;;;;;3.50;1.60;;;;;;;9.16;31.31;100359.50;5027327;28;20048;-59
2022/04/03 10:42:53;;;;;;;5.68;1.98;;;;;;;9.09;31.24;100365.72;5027197;28;20125;-60
2022/04/03 10:45:26;;;;;;;6.57;3.03;;;;;;;8.92;32.32;100355.50;5035505;28;20034;-59
2022/04/03 10:48:12;;;;;;;;;;;;;;;8.70;32.20;100361.94;5037593;28;20033;-69
2022/04/03 10:50:59;;;;;;;3.17;1.38;;;;;;;8.56;32.19;100360.38;5036707;28;19909;-68
2022/04/03 10:53:27;;;;;;;3.78;2.10;;;;;;;8.43;32.74;100353.59;5035725;28;20083;-67
2022/04/03 10:55:55;;;;;;;4.97;1.38;;;;;;;8.42;32.47;100353.59;5036768;28;20461;-69
2022/04/03 10:58:21;;;;;;;4.15;1.50;;;;;;;8.36;32.43;100357.13;5036927;28;20029;-69
2022/04/03 11:00:49;;;;;;;4.47;1.30;;;;;;;8.61;32.37;100358.56;5036693;28;20116;-68
2022/04/03 11:03:14;;;;;;;5.07;1.40;;;;;;;9.01;31.78;100342.25;5036432;28;20388;-67
2022/04/03 11:05:45;;;;;;;3.95;1.95;;;;;;;9.34;31.48;100348.72;5036942;28;20108;-68
2022/04/03 11:08:11;;;;;;;3.42;1.50;;;;;;;9.68;31.06;100336.75;5036471;28;20026;-68
2022/04/03 11:10:52;;;;;;;3.70;1.13;;;;;;;9.99;31.08;100335.25;5036742;28;20029;-68
2022/04/03 11:13:38;;;;;;;1.73;0.95;;;;;;;9.92;31.10;100335.41;5036643;28;20141;-67
2022/04/03 11:16:09;;;;;;;3.30;1.10;;;;;;;9.83;31.42;100336.47;5036510;28;20032;-67
2022/04/03 11:18:45;;;;;;;4.05;1.20;;;;;;;9.48;31.20;100343.22;5036208;28;20029;-68
2022/04/03 11:21:22;;;;;;;3.33;1.20;;;;;;;9.37;31.19;100332.94;5036281;28;20052;-67
2022/04/03 11:24:03;;;;;;;2.33;1.38;;;;;;;9.49;30.97;100339.69;5036001;28;20408;-67
2022/04/03 11:26:29;;;;;;;4.38;1.95;;;;;;;9.63;31.34;100324.56;5036554;28;20089;-67
2022/04/03 11:28:55;;;;;;;4.22;1.85;;;;;;;10.03;31.48;100322.94;5036183;28;20516;-67
2022/04/03 11:31:20;;;;;;;7.05;2.92;;;;;;;9.99;31.26;100324.75;5036041;28;20041;-68